createdAt,value
2017-08-30T00:00:22.187Z,1008.23
2017-08-30T00:01:32.465Z,1008.2
2017-08-30T00:02:43.007Z,1008.24
2017-08-30T00:03:53.552Z,1008.18
2017-08-30T00:05:03.830Z,1008.16
2017-08-30T00:06:14.098Z,1008.18
2017-08-30T00:07:24.376Z,1008.18
2017-08-30T00:08:34.655Z,1008.16
2017-08-30T00:09:45.188Z,1008.16
2017-08-30T00:10:55.493Z,1008.19
2017-08-30T00:12:06.111Z,1008.18
2017-08-30T00:13:16.407Z,1008.2
2017-08-30T00:14:26.349Z,1008.22
2017-08-30T00:15:36.570Z,1008.2
2017-08-30T00:16:46.868Z,1008.18
2017-08-30T00:17:57.127Z,1008.22
2017-08-30T00:19:07.082Z,1008.23
2017-08-30T00:20:17.369Z,1008.17
2017-08-30T00:21:27.571Z,1008.17
2017-08-30T00:22:37.861Z,1008.11
2017-08-30T00:23:47.830Z,1008.12
2017-08-30T00:24:58.097Z,1008.16
2017-08-30T00:26:08.058Z,1008.15
2017-08-30T00:27:17.951Z,1008.13
2017-08-30T00:28:28.231Z,1008.17
2017-08-30T00:29:38.209Z,1008.19
2017-08-30T00:30:48.499Z,1008.2
2017-08-30T00:31:58.164Z,1008.18
2017-08-30T00:33:08.697Z,1008.22
2017-08-30T00:34:18.651Z,1008.19
2017-08-30T00:35:28.926Z,1008.2
2017-08-30T00:36:39.343Z,1008.22
2017-08-30T00:37:49.297Z,1008.21
2017-08-30T00:38:59.838Z,1008.19
2017-08-30T00:40:10.132Z,1008.17
2017-08-30T00:41:20.396Z,1008.17
2017-08-30T00:42:30.687Z,1008.14
2017-08-30T00:43:40.654Z,1008.16
2017-08-30T00:44:51.175Z,1008.08
2017-08-30T00:46:01.452Z,1008.11
2017-08-30T00:47:11.728Z,1008.12
2017-08-30T00:48:21.695Z,1008.14
2017-08-30T00:49:31.970Z,1008.11
2017-08-30T00:50:42.509Z,1008.15
2017-08-30T00:51:52.471Z,1008.17
2017-08-30T00:53:02.762Z,1008.18
2017-08-30T00:54:12.096Z,1008.17
2017-08-30T00:55:21.761Z,1008.15
2017-08-30T00:56:32.300Z,1008.13
2017-08-30T00:57:42.571Z,1008.13
2017-08-30T00:58:52.837Z,1008.08
2017-08-30T01:00:02.494Z,1008.11
2017-08-30T01:01:12.455Z,1008.08
2017-08-30T01:02:22.373Z,1008.1
2017-08-30T01:03:32.632Z,1008.09
2017-08-30T01:04:42.578Z,1008.08
2017-08-30T01:05:52.552Z,1008.08
2017-08-30T01:07:02.836Z,1008.07
2017-08-30T01:08:13.353Z,1008.04
2017-08-30T01:09:23.333Z,1008.03
2017-08-30T01:10:33.282Z,1007.99
2017-08-30T01:11:43.949Z,1008.03
2017-08-30T01:12:54.237Z,1008.04
2017-08-30T01:14:04.774Z,1008.02
2017-08-30T01:15:15.031Z,1008.01
2017-08-30T01:16:24.996Z,1008.02
2017-08-30T01:17:34.973Z,1008.04
2017-08-30T01:18:45.251Z,1008.06
2017-08-30T01:19:55.783Z,1008
2017-08-30T01:21:06.048Z,1007.99
2017-08-30T01:22:16.600Z,1007.98
2017-08-30T01:23:26.867Z,1007.98
2017-08-30T01:24:37.144Z,1007.96
2017-08-30T01:25:47.061Z,1007.95
2017-08-30T01:26:57.338Z,1007.97
2017-08-30T01:28:07.304Z,1007.95
2017-08-30T01:29:17.287Z,1007.96
2017-08-30T01:30:26.938Z,1007.98
2017-08-30T01:31:37.156Z,1007.94
2017-08-30T01:32:47.115Z,1008.01
2017-08-30T01:33:57.397Z,1007.96
2017-08-30T01:35:07.677Z,1008
2017-08-30T01:36:17.641Z,1007.99
2017-08-30T01:37:28.175Z,1007.97
2017-08-30T01:38:38.449Z,1007.95
2017-08-30T01:39:48.422Z,1007.93
2017-08-30T01:40:58.379Z,1007.92
2017-08-30T01:42:08.669Z,1007.89
2017-08-30T01:43:18.570Z,1007.88
2017-08-30T01:44:29.249Z,1007.86
2017-08-30T01:45:39.215Z,1007.87
2017-08-30T01:46:49.171Z,1007.86
2017-08-30T01:47:59.447Z,1007.9
2017-08-30T01:49:09.666Z,1007.9
2017-08-30T01:50:19.947Z,1007.91
2017-08-30T01:51:30.264Z,1007.88
2017-08-30T01:52:40.546Z,1007.88
2017-08-30T01:53:50.834Z,1007.85
2017-08-30T01:55:01.074Z,1007.86
2017-08-30T01:56:11.345Z,1007.84
2017-08-30T01:57:21.290Z,1007.85
2017-08-30T01:58:31.590Z,1007.79
2017-08-30T01:59:41.865Z,1007.82
2017-08-30T02:00:52.405Z,1007.8
2017-08-30T02:02:02.684Z,1007.79
2017-08-30T02:03:12.954Z,1007.84
2017-08-30T02:04:23.231Z,1007.84
2017-08-30T02:05:33.521Z,1007.8
2017-08-30T02:06:43.728Z,1007.78
2017-08-30T02:07:53.350Z,1007.75
2017-08-30T02:09:03.634Z,1007.76
2017-08-30T02:10:13.912Z,1007.74
2017-08-30T02:11:23.573Z,1007.75
2017-08-30T02:12:34.102Z,1007.72
2017-08-30T02:13:44.065Z,1007.77
2017-08-30T02:14:54.334Z,1007.75
2017-08-30T02:16:04.619Z,1007.79
2017-08-30T02:17:14.275Z,1007.76
2017-08-30T02:18:24.796Z,1007.74
2017-08-30T02:19:34.771Z,1007.8
2017-08-30T02:20:44.738Z,1007.75
2017-08-30T02:21:55.011Z,1007.69
2017-08-30T02:23:05.279Z,1007.71
2017-08-30T02:24:15.802Z,1007.74
2017-08-30T02:25:26.095Z,1007.67
2017-08-30T02:26:36.381Z,1007.66
2017-08-30T02:27:46.337Z,1007.64
2017-08-30T02:28:56.604Z,1007.63
2017-08-30T02:30:07.134Z,1007.58
2017-08-30T02:31:17.129Z,1007.6
2017-08-30T02:32:27.405Z,1007.54
2017-08-30T02:33:37.046Z,1007.6
2017-08-30T02:34:47.332Z,1007.54
2017-08-30T02:35:57.544Z,1007.54
2017-08-30T02:37:07.189Z,1007.58
2017-08-30T02:38:17.162Z,1007.55
2017-08-30T02:39:27.430Z,1007.52
2017-08-30T02:40:37.707Z,1007.52
2017-08-30T02:41:47.918Z,1007.52
2017-08-30T02:42:57.888Z,1007.53
2017-08-30T02:44:08.173Z,1007.55
2017-08-30T02:45:18.136Z,1007.62
2017-08-30T02:46:28.113Z,1007.58
2017-08-30T02:47:38.320Z,1007.57
2017-08-30T02:48:48.587Z,1007.55
2017-08-30T02:49:58.855Z,1007.59
2017-08-30T02:51:08.821Z,1007.58
2017-08-30T02:52:19.106Z,1007.6
2017-08-30T02:53:29.320Z,1007.59
2017-08-30T02:54:39.602Z,1007.59
2017-08-30T02:55:49.586Z,1007.63
2017-08-30T02:56:59.855Z,1007.63
2017-08-30T02:58:09.795Z,1007.55
2017-08-30T02:59:20.013Z,1007.56
2017-08-30T03:00:29.649Z,1007.56
2017-08-30T03:01:39.945Z,1007.51
2017-08-30T03:02:50.214Z,1007.49
2017-08-30T03:04:00.185Z,1007.5
2017-08-30T03:05:10.695Z,1007.51
2017-08-30T03:06:20.651Z,1007.53
2017-08-30T03:07:30.939Z,1007.5
2017-08-30T03:08:41.212Z,1007.49
2017-08-30T03:09:51.181Z,1007.46
2017-08-30T03:11:01.706Z,1007.48
2017-08-30T03:12:11.993Z,1007.44
2017-08-30T03:13:22.289Z,1007.46
2017-08-30T03:14:32.584Z,1007.45
2017-08-30T03:15:42.863Z,1007.47
2017-08-30T03:16:53.402Z,1007.47
2017-08-30T03:18:03.388Z,1007.48
2017-08-30T03:19:13.689Z,1007.51
2017-08-30T03:20:23.647Z,1007.49
2017-08-30T03:21:33.936Z,1007.5
2017-08-30T03:22:44.458Z,1007.52
2017-08-30T03:23:54.743Z,1007.54
2017-08-30T03:25:05.033Z,1007.54
2017-08-30T03:26:15.656Z,1007.51
2017-08-30T03:27:25.650Z,1007.54
2017-08-30T03:28:36.174Z,1007.51
2017-08-30T03:29:46.447Z,1007.53
2017-08-30T03:30:56.718Z,1007.47
2017-08-30T03:32:07.002Z,1007.52
2017-08-30T03:33:16.960Z,1007.56
2017-08-30T03:34:27.488Z,1007.55
2017-08-30T03:35:37.768Z,1007.58
2017-08-30T03:36:47.748Z,1007.58
2017-08-30T03:37:58.025Z,1007.57
2017-08-30T03:39:08.288Z,1007.6
2017-08-30T03:40:18.499Z,1007.57
2017-08-30T03:41:28.797Z,1007.59
2017-08-30T03:42:38.745Z,1007.57
2017-08-30T03:43:49.017Z,1007.54
2017-08-30T03:44:58.983Z,1007.55
2017-08-30T03:46:09.523Z,1007.52
2017-08-30T03:47:19.817Z,1007.58
2017-08-30T03:48:30.079Z,1007.53
2017-08-30T03:49:40.346Z,1007.57
2017-08-30T03:50:50.302Z,1007.54
2017-08-30T03:52:00.524Z,1007.57
2017-08-30T03:53:10.804Z,1007.55
2017-08-30T03:54:20.756Z,1007.54
2017-08-30T03:55:31.040Z,1007.53
2017-08-30T03:56:40.990Z,1007.53
2017-08-30T03:57:51.512Z,1007.52
2017-08-30T03:59:00.830Z,1007.54
2017-08-30T04:00:10.779Z,1007.55
2017-08-30T04:01:20.751Z,1007.52
2017-08-30T04:02:31.024Z,1007.54
2017-08-30T04:03:41.224Z,1007.52
2017-08-30T04:04:51.189Z,1007.49
2017-08-30T04:06:01.464Z,1007.49
2017-08-30T04:07:11.757Z,1007.49
2017-08-30T04:08:21.733Z,1007.5
2017-08-30T04:09:32.266Z,1007.51
2017-08-30T04:10:42.255Z,1007.52
2017-08-30T04:11:52.525Z,1007.53
2017-08-30T04:13:02.512Z,1007.55
2017-08-30T04:14:12.468Z,1007.54
2017-08-30T04:15:22.683Z,1007.56
2017-08-30T04:16:32.646Z,1007.57
2017-08-30T04:17:42.285Z,1007.6
2017-08-30T04:18:52.560Z,1007.6
2017-08-30T04:20:02.861Z,1007.59
2017-08-30T04:21:13.388Z,1007.63
2017-08-30T04:22:23.661Z,1007.59
2017-08-30T04:23:33.928Z,1007.63
2017-08-30T04:24:44.191Z,1007.62
2017-08-30T04:25:54.486Z,1007.59
2017-08-30T04:27:05.008Z,1007.62
2017-08-30T04:28:14.655Z,1007.61
2017-08-30T04:29:24.925Z,1007.67
2017-08-30T04:30:35.206Z,1007.62
2017-08-30T04:31:45.173Z,1007.64
2017-08-30T04:32:55.705Z,1007.61
2017-08-30T04:34:05.641Z,1007.59
2017-08-30T04:35:15.581Z,1007.58
2017-08-30T04:36:25.531Z,1007.57
2017-08-30T04:37:35.493Z,1007.54
2017-08-30T04:38:45.687Z,1007.55
2017-08-30T04:39:55.630Z,1007.55
2017-08-30T04:41:05.580Z,1007.52
2017-08-30T04:42:15.854Z,1007.53
2017-08-30T04:43:26.129Z,1007.56
2017-08-30T04:44:36.340Z,1007.57
2017-08-30T04:45:46.644Z,1007.65
2017-08-30T04:46:56.927Z,1007.62
2017-08-30T04:48:06.888Z,1007.58
2017-08-30T04:49:17.165Z,1007.56
2017-08-30T04:50:27.098Z,1007.57
2017-08-30T04:51:37.367Z,1007.58
2017-08-30T04:52:47.357Z,1007.59
2017-08-30T04:53:57.330Z,1007.63
2017-08-30T04:55:07.302Z,1007.69
2017-08-30T04:56:17.860Z,1007.65
2017-08-30T04:57:27.813Z,1007.72
2017-08-30T04:58:38.092Z,1007.7
2017-08-30T04:59:48.371Z,1007.71
2017-08-30T05:00:58.342Z,1007.71
2017-08-30T05:02:08.874Z,1007.66
2017-08-30T05:03:19.148Z,1007.69
2017-08-30T05:04:29.128Z,1007.62
2017-08-30T05:05:39.409Z,1007.62
2017-08-30T05:06:49.675Z,1007.62
2017-08-30T05:07:59.880Z,1007.64
2017-08-30T05:09:10.259Z,1007.6
2017-08-30T05:10:20.553Z,1007.58
2017-08-30T05:11:30.834Z,1007.56
2017-08-30T05:12:40.793Z,1007.56
2017-08-30T05:13:50.999Z,1007.55
2017-08-30T05:15:00.961Z,1007.52
2017-08-30T05:16:10.926Z,1007.52
2017-08-30T05:17:21.207Z,1007.5
2017-08-30T05:18:31.497Z,1007.52
2017-08-30T05:19:42.019Z,1007.48
2017-08-30T05:20:52.295Z,1007.49
2017-08-30T05:22:02.581Z,1007.51
2017-08-30T05:23:12.881Z,1007.55
2017-08-30T05:24:23.154Z,1007.58
2017-08-30T05:25:33.393Z,1007.57
2017-08-30T05:26:43.681Z,1007.59
2017-08-30T05:27:53.632Z,1007.65
2017-08-30T05:29:03.948Z,1007.66
2017-08-30T05:30:14.210Z,1007.63
2017-08-30T05:31:24.422Z,1007.61
2017-08-30T05:32:34.705Z,1007.64
2017-08-30T05:33:44.662Z,1007.58
2017-08-30T05:34:54.961Z,1007.62
2017-08-30T05:36:05.243Z,1007.61
2017-08-30T05:37:15.777Z,1007.64
2017-08-30T05:38:25.416Z,1007.63
2017-08-30T05:39:35.699Z,1007.59
2017-08-30T05:40:45.989Z,1007.61
2017-08-30T05:41:55.958Z,1007.6
2017-08-30T05:43:06.493Z,1007.61
2017-08-30T05:44:16.772Z,1007.65
2017-08-30T05:45:26.747Z,1007.63
2017-08-30T05:46:36.714Z,1007.64
2017-08-30T05:47:46.673Z,1007.69
2017-08-30T05:48:56.886Z,1007.66
2017-08-30T05:50:07.169Z,1007.63
2017-08-30T05:51:17.432Z,1007.67
2017-08-30T05:52:27.702Z,1007.66
2017-08-30T05:53:37.676Z,1007.69
2017-08-30T05:54:48.200Z,1007.73
2017-08-30T05:55:58.490Z,1007.72
2017-08-30T05:57:08.757Z,1007.71
2017-08-30T05:58:19.050Z,1007.72
2017-08-30T05:59:28.688Z,1007.72
2017-08-30T06:00:38.901Z,1007.72
2017-08-30T06:01:48.867Z,1007.71
2017-08-30T06:02:59.161Z,1007.75
2017-08-30T06:04:09.438Z,1007.74
2017-08-30T06:05:19.703Z,1007.72
2017-08-30T06:06:29.913Z,1007.77
2017-08-30T06:07:40.189Z,1007.72
2017-08-30T06:08:50.479Z,1007.69
2017-08-30T06:10:00.445Z,1007.71
2017-08-30T06:11:10.712Z,1007.74
2017-08-30T06:12:20.928Z,1007.77
2017-08-30T06:13:31.231Z,1007.75
2017-08-30T06:14:41.512Z,1007.75
2017-08-30T06:15:51.795Z,1007.76
2017-08-30T06:17:01.443Z,1007.76
2017-08-30T06:18:11.971Z,1007.7
2017-08-30T06:19:21.965Z,1007.69
2017-08-30T06:20:32.248Z,1007.67
2017-08-30T06:21:42.534Z,1007.67
2017-08-30T06:22:52.814Z,1007.7
2017-08-30T06:24:03.334Z,1007.65
2017-08-30T06:25:13.635Z,1007.64
2017-08-30T06:26:23.607Z,1007.68
2017-08-30T06:27:33.891Z,1007.63
2017-08-30T06:28:44.178Z,1007.56
2017-08-30T06:29:54.770Z,1007.58
2017-08-30T06:31:04.739Z,1007.59
2017-08-30T06:32:15.368Z,1007.6
2017-08-30T06:33:25.689Z,1007.58
2017-08-30T06:34:35.972Z,1007.58
2017-08-30T06:35:46.187Z,1007.58
2017-08-30T06:36:56.739Z,1007.52
2017-08-30T06:38:06.721Z,1007.48
2017-08-30T06:39:17.001Z,1007.54
2017-08-30T06:40:27.299Z,1007.49
2017-08-30T06:41:37.839Z,1007.5
2017-08-30T06:42:48.129Z,1007.54
2017-08-30T06:43:57.814Z,1007.52
2017-08-30T06:45:08.122Z,1007.53
2017-08-30T06:46:18.494Z,1007.53
2017-08-30T06:47:29.052Z,1007.55
2017-08-30T06:48:39.336Z,1007.52
2017-08-30T06:49:49.291Z,1007.52
2017-08-30T06:50:59.566Z,1007.49
2017-08-30T06:52:09.859Z,1007.43
2017-08-30T06:53:20.394Z,1007.46
2017-08-30T06:54:30.437Z,1007.48
2017-08-30T06:55:40.954Z,1007.5
2017-08-30T06:56:51.285Z,1007.47
2017-08-30T06:58:01.589Z,1007.49
2017-08-30T06:59:11.514Z,1007.49
2017-08-30T07:00:21.853Z,1007.44
2017-08-30T07:01:31.826Z,1007.44
2017-08-30T07:02:41.828Z,1007.42
2017-08-30T07:03:51.787Z,1007.44
2017-08-30T07:05:02.340Z,1007.41
2017-08-30T07:06:12.305Z,1007.44
2017-08-30T07:07:22.593Z,1007.42
2017-08-30T07:08:32.575Z,1007.37
2017-08-30T07:09:42.557Z,1007.43
2017-08-30T07:10:53.098Z,1007.35
2017-08-30T07:12:03.384Z,1007.38
2017-08-30T07:13:13.689Z,1007.41
2017-08-30T07:14:23.973Z,1007.39
2017-08-30T07:15:33.637Z,1007.41
2017-08-30T07:16:43.904Z,1007.41
2017-08-30T07:17:54.207Z,1007.3
2017-08-30T07:19:04.482Z,1007.34
2017-08-30T07:20:14.755Z,1007.4
2017-08-30T07:21:25.028Z,1007.37
2017-08-30T07:22:35.551Z,1007.35
2017-08-30T07:23:45.843Z,1007.37
2017-08-30T07:24:55.833Z,1007.36
2017-08-30T07:26:06.139Z,1007.36
2017-08-30T07:27:16.440Z,1007.38
2017-08-30T07:28:26.649Z,1007.41
2017-08-30T07:29:36.924Z,1007.36
2017-08-30T07:30:46.894Z,1007.42
2017-08-30T07:31:57.180Z,1007.39
2017-08-30T07:33:07.496Z,1007.41
2017-08-30T07:34:17.757Z,1007.43
2017-08-30T07:35:28.045Z,1007.43
2017-08-30T07:36:38.339Z,1007.43
2017-08-30T07:37:48.327Z,1007.41
2017-08-30T07:38:58.622Z,1007.42
2017-08-30T07:40:08.888Z,1007.42
2017-08-30T07:41:18.835Z,1007.39
2017-08-30T07:42:29.128Z,1007.43
2017-08-30T07:43:39.090Z,1007.43
2017-08-30T07:44:49.384Z,1007.46
2017-08-30T07:45:59.922Z,1007.46
2017-08-30T07:47:09.887Z,1007.42
2017-08-30T07:48:20.512Z,1007.42
2017-08-30T07:49:30.148Z,1007.39
2017-08-30T07:50:40.464Z,1007.42
2017-08-30T07:51:50.999Z,1007.4
2017-08-30T07:53:00.985Z,1007.37
2017-08-30T07:54:11.253Z,1007.4
2017-08-30T07:55:21.543Z,1007.36
2017-08-30T07:56:31.496Z,1007.35
2017-08-30T07:57:41.408Z,1007.34
2017-08-30T07:58:51.681Z,1007.35
2017-08-30T08:00:01.956Z,1007.37
2017-08-30T08:01:11.928Z,1007.38
2017-08-30T08:02:22.218Z,1007.33
2017-08-30T08:03:32.802Z,1007.37
2017-08-30T08:04:43.104Z,1007.38
2017-08-30T08:05:53.086Z,1007.39
2017-08-30T08:07:03.420Z,1007.36
2017-08-30T08:08:13.701Z,1007.38
2017-08-30T08:09:24.247Z,1007.35
2017-08-30T08:10:34.526Z,1007.29
2017-08-30T08:11:44.488Z,1007.31
2017-08-30T08:12:54.781Z,1007.3
2017-08-30T08:14:04.770Z,1007.3
2017-08-30T08:15:14.690Z,1007.29
2017-08-30T08:16:24.961Z,1007.29
2017-08-30T08:17:35.229Z,1007.27
2017-08-30T08:18:45.189Z,1007.3
2017-08-30T08:19:55.467Z,1007.28
2017-08-30T08:21:05.690Z,1007.29
2017-08-30T08:22:15.972Z,1007.25
2017-08-30T08:23:25.930Z,1007.22
2017-08-30T08:24:36.226Z,1007.21
2017-08-30T08:25:46.183Z,1007.23
2017-08-30T08:26:56.744Z,1007.2
2017-08-30T08:28:07.058Z,1007.23
2017-08-30T08:29:17.358Z,1007.26
2017-08-30T08:30:27.320Z,1007.25
2017-08-30T08:31:37.305Z,1007.29
2017-08-30T08:32:47.224Z,1007.3
2017-08-30T08:33:57.532Z,1007.29
2017-08-30T08:35:07.507Z,1007.26
2017-08-30T08:36:17.148Z,1007.22
2017-08-30T08:37:27.438Z,1007.32
2017-08-30T08:38:37.977Z,1007.31
2017-08-30T08:39:47.953Z,1007.3
2017-08-30T08:40:58.268Z,1007.31
2017-08-30T08:42:08.556Z,1007.29
2017-08-30T08:43:18.857Z,1007.31
2017-08-30T08:44:29.086Z,1007.33
2017-08-30T08:45:39.377Z,1007.25
2017-08-30T08:46:49.687Z,1007.29
2017-08-30T08:47:59.674Z,1007.31
2017-08-30T08:49:09.638Z,1007.34
2017-08-30T08:50:20.200Z,1007.27
2017-08-30T08:51:30.491Z,1007.3
2017-08-30T08:52:40.787Z,1007.29
2017-08-30T08:53:50.772Z,1007.28
2017-08-30T08:55:00.431Z,1007.28
2017-08-30T08:56:10.965Z,1007.28
2017-08-30T08:57:21.273Z,1007.28
2017-08-30T08:58:31.574Z,1007.37
2017-08-30T08:59:41.859Z,1007.37
2017-08-30T09:00:52.157Z,1007.31
2017-08-30T09:02:02.705Z,1007.35
2017-08-30T09:03:12.989Z,1007.36
2017-08-30T09:04:23.290Z,1007.36
2017-08-30T09:05:33.290Z,1007.35
2017-08-30T09:06:43.597Z,1007.37
2017-08-30T09:07:53.519Z,1007.36
2017-08-30T09:09:03.822Z,1007.37
2017-08-30T09:10:14.114Z,1007.38
2017-08-30T09:11:24.108Z,1007.31
2017-08-30T09:12:34.403Z,1007.41
2017-08-30T09:13:44.959Z,1007.34
2017-08-30T09:14:55.258Z,1007.34
2017-08-30T09:16:05.555Z,1007.37
2017-08-30T09:17:15.853Z,1007.31
2017-08-30T09:18:26.159Z,1007.33
2017-08-30T09:19:36.450Z,1007.33
2017-08-30T09:20:46.752Z,1007.3
2017-08-30T09:21:57.049Z,1007.27
2017-08-30T09:23:07.349Z,1007.3
2017-08-30T09:24:17.301Z,1007.27
2017-08-30T09:25:27.584Z,1007.21
2017-08-30T09:26:37.891Z,1007.2
2017-08-30T09:27:47.526Z,1007.2
2017-08-30T09:28:57.504Z,1007.2
2017-08-30T09:30:07.529Z,1007.22
2017-08-30T09:31:18.063Z,1007.2
2017-08-30T09:32:28.357Z,1007.2
2017-08-30T09:33:38.665Z,1007.16
2017-08-30T09:34:48.979Z,1007.17
2017-08-30T09:35:59.300Z,1007.23
2017-08-30T09:37:09.577Z,1007.21
2017-08-30T09:38:19.571Z,1007.22
2017-08-30T09:39:29.863Z,1007.21
2017-08-30T09:40:39.836Z,1007.23
2017-08-30T09:41:50.127Z,1007.19
2017-08-30T09:43:00.042Z,1007.13
2017-08-30T09:44:10.025Z,1007.12
2017-08-30T09:45:20.305Z,1007.17
2017-08-30T09:46:30.281Z,1007.18
2017-08-30T09:47:40.569Z,1007.12
2017-08-30T09:48:51.131Z,1007.16
2017-08-30T09:50:01.115Z,1007.12
2017-08-30T09:51:11.411Z,1007.1
2017-08-30T09:52:21.708Z,1007.12
2017-08-30T09:53:31.697Z,1007.08
2017-08-30T09:54:42.226Z,1007.05
2017-08-30T09:55:52.522Z,1007
2017-08-30T09:57:02.496Z,1007.01
2017-08-30T09:58:12.482Z,1006.92
2017-08-30T09:59:22.807Z,1006.96
2017-08-30T10:00:33.350Z,1006.99
2017-08-30T10:01:43.630Z,1006.98
2017-08-30T10:02:53.928Z,1006.95
2017-08-30T10:04:03.913Z,1006.95
2017-08-30T10:05:13.905Z,1006.91
2017-08-30T10:06:24.124Z,1006.88
2017-08-30T10:07:34.119Z,1006.93
2017-08-30T10:08:44.427Z,1006.94
2017-08-30T10:09:54.409Z,1006.93
2017-08-30T10:11:04.399Z,1006.94
2017-08-30T10:12:14.942Z,1006.9
2017-08-30T10:13:25.241Z,1006.89
2017-08-30T10:14:35.236Z,1006.88
2017-08-30T10:15:45.547Z,1006.83
2017-08-30T10:16:55.917Z,1006.85
2017-08-30T10:18:06.471Z,1006.88
2017-08-30T10:19:16.770Z,1006.88
2017-08-30T10:20:26.744Z,1006.85
2017-08-30T10:21:37.041Z,1006.88
2017-08-30T10:22:47.005Z,1006.8
2017-08-30T10:23:57.608Z,1006.77
2017-08-30T10:25:07.979Z,1006.7
2017-08-30T10:26:17.955Z,1006.7
2017-08-30T10:27:27.953Z,1006.66
2017-08-30T10:28:37.614Z,1006.65
2017-08-30T10:29:48.172Z,1006.68
2017-08-30T10:30:58.458Z,1006.7
2017-08-30T10:32:08.793Z,1006.65
2017-08-30T10:33:19.130Z,1006.68
2017-08-30T10:34:29.443Z,1006.73
2017-08-30T10:35:39.683Z,1006.74
2017-08-30T10:36:49.987Z,1006.7
2017-08-30T10:37:59.975Z,1006.6
2017-08-30T10:39:09.949Z,1006.63
2017-08-30T10:40:20.262Z,1006.65
2017-08-30T10:41:30.490Z,1006.61
2017-08-30T10:42:40.803Z,1006.59
2017-08-30T10:43:51.086Z,1006.6
2017-08-30T10:45:01.390Z,1006.59
2017-08-30T10:46:11.696Z,1006.67
2017-08-30T10:47:22.271Z,1006.61
2017-08-30T10:48:32.573Z,1006.64
2017-08-30T10:49:42.862Z,1006.6
2017-08-30T10:50:53.166Z,1006.64
2017-08-30T10:52:03.156Z,1006.63
2017-08-30T10:53:13.399Z,1006.58
2017-08-30T10:54:23.384Z,1006.61
2017-08-30T10:55:33.674Z,1006.59
2017-08-30T10:56:44.006Z,1006.61
2017-08-30T10:57:54.322Z,1006.57
2017-08-30T10:59:04.890Z,1006.58
2017-08-30T11:00:15.199Z,1006.54
2017-08-30T11:01:25.185Z,1006.59
2017-08-30T11:02:35.495Z,1006.52
2017-08-30T11:03:45.841Z,1006.51
2017-08-30T11:04:56.401Z,1006.45
2017-08-30T11:06:06.718Z,1006.42
2017-08-30T11:07:16.394Z,1006.51
2017-08-30T11:08:26.699Z,1006.45
2017-08-30T11:09:37.040Z,1006.35
2017-08-30T11:10:47.607Z,1006.34
2017-08-30T11:11:57.951Z,1006.36
2017-08-30T11:13:07.979Z,1006.43
2017-08-30T11:14:17.345Z,1006.41
2017-08-30T11:15:27.653Z,1006.38
2017-08-30T11:16:38.228Z,1006.38
2017-08-30T11:17:48.216Z,1006.33
2017-08-30T11:18:58.241Z,1006.4
2017-08-30T11:20:08.257Z,1006.4
2017-08-30T11:21:18.573Z,1006.4
2017-08-30T11:22:28.805Z,1006.39
2017-08-30T11:23:39.100Z,1006.37
2017-08-30T11:24:49.432Z,1006.3
2017-08-30T11:25:59.427Z,1006.38
2017-08-30T11:27:09.398Z,1006.36
2017-08-30T11:28:19.970Z,1006.37
2017-08-30T11:29:30.276Z,1006.36
2017-08-30T11:30:40.299Z,1006.37
2017-08-30T11:31:50.605Z,1006.34
2017-08-30T11:33:00.904Z,1006.34
2017-08-30T11:34:11.466Z,1006.34
2017-08-30T11:35:21.616Z,1006.32
2017-08-30T11:36:31.906Z,1006.3
2017-08-30T11:37:42.225Z,1006.35
2017-08-30T11:38:52.629Z,1006.27
2017-08-30T11:40:03.182Z,1006.24
2017-08-30T11:41:13.478Z,1006.25
2017-08-30T11:42:23.791Z,1006.25
2017-08-30T11:43:34.091Z,1006.23
2017-08-30T11:44:44.387Z,1006.22
2017-08-30T11:45:54.991Z,1006.17
2017-08-30T11:47:05.812Z,1006.22
2017-08-30T11:48:15.787Z,1006.15
2017-08-30T11:49:26.119Z,1006.19
2017-08-30T11:50:36.448Z,1006.21
2017-08-30T11:51:47.033Z,1006.2
2017-08-30T11:52:57.336Z,1006.13
2017-08-30T11:54:07.715Z,1006.14
2017-08-30T11:55:17.684Z,1006.14
2017-08-30T11:56:27.968Z,1006.14
2017-08-30T11:57:38.544Z,1006.07
2017-08-30T11:58:48.937Z,1006.14
2017-08-30T11:59:59.222Z,1006.16
2017-08-30T12:01:09.501Z,1006.16
2017-08-30T12:02:19.797Z,1006.08
2017-08-30T12:03:30.349Z,1006.15
2017-08-30T12:04:40.641Z,1006.14
2017-08-30T12:05:50.950Z,1006.11
2017-08-30T12:07:00.912Z,1006.11
2017-08-30T12:08:11.233Z,1006.11
2017-08-30T12:09:21.780Z,1006.1
2017-08-30T12:10:32.074Z,1006.18
2017-08-30T12:11:42.369Z,1006.18
2017-08-30T12:12:52.673Z,1006.19
2017-08-30T12:14:02.647Z,1006.15
2017-08-30T12:15:13.254Z,1006.17
2017-08-30T12:16:23.541Z,1006.13
2017-08-30T12:17:33.529Z,1006.08
2017-08-30T12:18:43.553Z,1006.15
2017-08-30T12:19:53.967Z,1006.11
2017-08-30T12:21:04.498Z,1006.08
2017-08-30T12:22:14.790Z,1005.97
2017-08-30T12:23:24.770Z,1005.95
2017-08-30T12:24:35.060Z,1005.96
2017-08-30T12:25:45.373Z,1005.96
2017-08-30T12:26:55.598Z,1005.98
2017-08-30T12:28:05.911Z,1005.9
2017-08-30T12:29:15.900Z,1005.98
2017-08-30T12:30:26.170Z,1005.91
2017-08-30T12:31:36.452Z,1006
2017-08-30T12:32:47.004Z,1005.98
2017-08-30T12:33:56.965Z,1005.97
2017-08-30T12:35:07.268Z,1005.95
2017-08-30T12:36:16.933Z,1005.84
2017-08-30T12:37:27.276Z,1005.84
2017-08-30T12:38:37.834Z,1005.8
2017-08-30T12:39:48.145Z,1005.78
2017-08-30T12:40:58.448Z,1005.74
2017-08-30T12:42:08.788Z,1005.71
2017-08-30T12:43:18.771Z,1005.72
2017-08-30T12:44:29.061Z,1005.66
2017-08-30T12:45:39.377Z,1005.63
2017-08-30T12:46:49.695Z,1005.73
2017-08-30T12:47:59.995Z,1005.67
2017-08-30T12:49:09.668Z,1005.65
2017-08-30T12:50:19.960Z,1005.67
2017-08-30T12:51:29.937Z,1005.58
2017-08-30T12:52:39.924Z,1005.54
2017-08-30T12:53:50.207Z,1005.51
2017-08-30T12:55:00.525Z,1005.53
2017-08-30T12:56:10.759Z,1005.47
2017-08-30T12:57:20.743Z,1005.45
2017-08-30T12:58:30.730Z,1005.37
2017-08-30T12:59:40.401Z,1005.32
2017-08-30T13:00:50.703Z,1005.27
2017-08-30T13:02:01.233Z,1005.22
2017-08-30T13:03:10.889Z,1005.18
2017-08-30T13:04:21.185Z,1005.15
2017-08-30T13:05:31.156Z,1005.1
2017-08-30T13:06:41.145Z,1005.05
2017-08-30T13:07:51.685Z,1005.05
2017-08-30T13:09:01.976Z,1005.13
2017-08-30T13:10:11.945Z,1005.12
2017-08-30T13:11:21.922Z,1005.07
2017-08-30T13:12:31.911Z,1005.09
2017-08-30T13:13:42.442Z,1005
2017-08-30T13:14:52.731Z,1005.04
2017-08-30T13:16:03.042Z,1005.02
2017-08-30T13:17:12.696Z,1004.99
2017-08-30T13:18:22.977Z,1005.01
2017-08-30T13:19:33.524Z,1005
2017-08-30T13:20:43.493Z,1005.06
2017-08-30T13:21:53.794Z,1005.03
2017-08-30T13:23:03.762Z,1005.11
2017-08-30T13:24:14.050Z,1005.07
2017-08-30T13:25:24.269Z,1005.07
2017-08-30T13:26:34.236Z,1005.22
2017-08-30T13:27:44.540Z,1005.24
2017-08-30T13:28:54.836Z,1005.29
2017-08-30T13:30:05.122Z,1005.32
2017-08-30T13:31:15.662Z,1005.37
2017-08-30T13:32:25.617Z,1005.29
2017-08-30T13:33:35.918Z,1005.33
2017-08-30T13:34:46.226Z,1005.29
2017-08-30T13:35:56.515Z,1005.27
2017-08-30T13:37:07.034Z,1005.24
2017-08-30T13:38:17.026Z,1005.23
2017-08-30T13:39:27.030Z,1005.26
2017-08-30T13:40:37.331Z,1005.24
2017-08-30T13:41:47.625Z,1005.16
2017-08-30T13:42:58.172Z,1005.23
2017-08-30T13:44:08.471Z,1005.17
2017-08-30T13:45:18.436Z,1005.14
2017-08-30T13:46:28.407Z,1005.12
2017-08-30T13:47:38.694Z,1005.04
2017-08-30T13:48:49.231Z,1005.02
2017-08-30T13:49:59.508Z,1005.03
2017-08-30T13:51:09.483Z,1004.98
2017-08-30T13:52:19.489Z,1004.96
2017-08-30T13:53:29.839Z,1004.97
2017-08-30T13:54:40.072Z,1004.92
2017-08-30T13:55:50.039Z,1004.95
2017-08-30T13:57:00.341Z,1004.9
2017-08-30T13:58:10.664Z,1004.92
2017-08-30T13:59:20.959Z,1004.95
2017-08-30T14:00:31.191Z,1004.98
2017-08-30T14:01:41.174Z,1004.99
2017-08-30T14:02:50.858Z,1004.96
2017-08-30T14:04:01.156Z,1005
2017-08-30T14:05:11.124Z,1004.98
2017-08-30T14:06:21.671Z,1004.94
2017-08-30T14:07:31.663Z,1004.94
2017-08-30T14:08:41.963Z,1004.96
2017-08-30T14:09:52.254Z,1005.01
2017-08-30T14:11:02.539Z,1004.9
2017-08-30T14:12:13.096Z,1005